Terminal Aerodrome Forecast
Issued by NWS

Home | Current Version | Previous Version | Text Only | Print | Product List | Glossary On
Versions: 1 2 3 4 5 6 7 8 9 10 11 12 13 14 15 16 17 18
000
FTUS44 KLZK 211100
TAFPBF
TAF
KPBF 211123Z 2112/2212 00000KT P6SM SCT250
      TEMPO 2112/2114 5SM BR
     FM211700 33010KT P6SM SCT050 SCT100
     FM220200 01007KT P6SM SKC=

USA.gov is the U.S. government's official web portal to all federal, state and local government web resources and services.